Time;durP1;ratioP1;P1;durP2;ratioP2;P2;SDS_P1;SDS_P2;PMS_P1;PMS_P2;Temp;Humidity;BMP_temperature;BMP_pressure;BME280_temperature;BME280_humidity;BME280_pressure;Samples;Min_cycle;Max_cycle;Signal;HPM_P1;HPM_P2
2022/08/04 00:00:15;;;;;;;4.65;2.00;;;21.10;1.00;;;;;;4952906;29;20147;-90
2022/08/04 00:03:09;;;;;;;2.85;1.58;;;21.30;1.00;;;;;;4943677;29;20131;-89
2022/08/04 00:06:03;;;;;;;3.10;1.85;;;21.50;1.00;;;;;;4951516;29;20343;-89
2022/08/04 00:08:57;;;;;;;6.25;1.75;;;21.60;1.00;;;;;;4952773;28;20075;-82
2022/08/04 00:11:47;;;;;;;2.30;2.10;;;21.60;1.00;;;;;;4935115;29;20083;-90
2022/08/04 00:14:36;;;;;;;2.10;1.85;;;21.60;1.00;;;;;;4955039;29;20040;-85
2022/08/04 00:17:30;;;;;;;1.58;1.48;;;21.50;1.00;;;;;;4943351;29;20051;-90
2022/08/04 00:20:19;;;;;;;2.63;1.52;;;21.60;1.00;;;;;;4947546;29;20072;-90
2022/08/04 00:23:07;;;;;;;3.55;1.58;;;21.70;1.00;;;;;;4947035;29;20039;-90
2022/08/04 00:25:57;;;;;;;2.38;1.50;;;21.70;1.00;;;;;;4925380;29;20509;-90
2022/08/04 00:28:46;;;;;;;3.42;1.83;;;21.50;1.00;;;;;;4920678;29;20088;-90
2022/08/04 00:31:35;;;;;;;3.38;1.73;;;21.40;1.00;;;;;;4933298;29;20051;-91
2022/08/04 00:34:42;;;;;;;4.18;1.90;;;21.30;1.00;;;;;;4928809;29;20043;-89
2022/08/04 00:37:32;;;;;;;2.15;1.80;;;21.10;1.00;;;;;;4928351;29;20071;-89
2022/08/04 00:40:32;;;;;;;2.80;1.85;;;21.10;1.00;;;;;;4935462;29;20118;-90
2022/08/04 00:43:33;;;;;;;1.92;1.60;;;21.10;1.00;;;;;;4929194;29;20051;-90
2022/08/04 00:46:48;;;;;;;1.48;1.38;;;21.30;1.00;;;;;;4942758;29;20048;-90
2022/08/04 00:49:56;;;;;;;3.15;1.88;;;21.20;1.00;;;;;;4940715;29;20071;-90
2022/08/04 00:52:46;;;;;;;5.55;1.52;;;21.20;1.00;;;;;;4934851;29;20048;-85
2022/08/04 00:55:55;;;;;;;2.13;1.60;;;21.00;1.00;;;;;;4936023;29;20517;-90
2022/08/04 00:59:07;;;;;;;4.07;1.50;;;20.90;1.00;;;;;;4931238;29;20111;-91
2022/08/04 01:02:30;;;;;;;3.17;1.80;;;20.70;1.00;;;;;;4923210;29;20383;-90
2022/08/04 01:05:27;;;;;;;2.13;1.75;;;20.60;1.00;;;;;;4937058;29;20497;-90
2022/08/04 01:08:26;;;;;;;4.60;1.90;;;20.50;1.00;;;;;;4944643;29;20118;-89
2022/08/04 01:11:42;;;;;;;3.08;1.42;;;20.40;1.00;;;;;;4942720;29;20130;-89
2022/08/04 01:15:04;;;;;;;3.47;1.73;;;20.20;1.00;;;;;;4949497;29;20066;-91
2022/08/04 01:18:05;;;;;;;1.83;1.50;;;20.00;1.00;;;;;;4949359;29;20071;-89
2022/08/04 01:21:16;;;;;;;2.42;1.80;;;19.90;1.00;;;;;;4942770;29;20055;-90
2022/08/04 01:24:53;;;;;;;3.47;2.00;;;19.90;1.00;;;;;;4939047;29;20044;-89
2022/08/04 01:27:51;;;;;;;1.80;1.67;;;19.80;1.00;;;;;;4919174;29;20048;-90
2022/08/04 01:30:43;;;;;;;3.67;1.63;;;19.70;1.00;;;;;;4937548;29;20059;-89
2022/08/04 01:33:34;;;;;;;2.08;1.70;;;19.70;1.00;;;;;;4933448;29;20607;-90
2022/08/04 01:36:50;;;;;;;3.53;1.40;;;19.70;1.00;;;;;;4926251;29;20048;-90
2022/08/04 01:39:52;;;;;;;3.80;1.98;;;19.60;1.00;;;;;;4919693;29;20071;-90
2022/08/04 01:42:40;;;;;;;3.65;1.92;;;19.50;1.00;;;;;;4934680;29;20051;-90
2022/08/04 01:45:30;;;;;;;4.43;1.80;;;19.40;1.00;;;;;;4927543;29;20051;-90
2022/08/04 01:48:23;;;;;;;1.85;1.70;;;19.30;1.00;;;;;;4935722;29;20047;-90
2022/08/04 01:51:14;;;;;;;3.30;2.10;;;19.20;1.00;;;;;;4937584;29;20134;-90
2022/08/04 01:54:03;;;;;;;2.60;1.83;;;19.10;1.00;;;;;;4939922;29;20062;-90
2022/08/04 01:56:50;;;;;;;6.47;2.17;;;19.00;1.00;;;;;;4939096;29;20477;-90
2022/08/04 01:59:38;;;;;;;2.70;1.63;;;19.00;1.00;;;;;;4937075;29;20103;-87
2022/08/04 02:02:25;;;;;;;2.00;1.65;;;19.00;1.00;;;;;;4938961;29;20079;-90
2022/08/04 02:05:18;;;;;;;2.42;1.95;;;19.00;1.00;;;;;;4936495;29;20051;-89
2022/08/04 02:08:25;;;;;;;2.17;1.90;;;18.80;1.00;;;;;;4937066;29;20505;-89
2022/08/04 02:11:19;;;;;;;4.40;2.55;;;18.70;1.00;;;;;;4937151;29;20362;-88
2022/08/04 02:14:39;;;;;;;6.10;2.40;;;18.70;1.00;;;;;;4937704;29;20071;-88
2022/08/04 02:17:49;;;;;;;4.75;2.45;;;18.80;1.00;;;;;;4939742;29;20039;-89
2022/08/04 02:20:38;;;;;;;3.72;2.35;;;18.90;1.00;;;;;;4931227;29;20043;-89
2022/08/04 02:23:29;;;;;;;2.85;2.33;;;19.00;1.00;;;;;;4935927;29;20110;-90
2022/08/04 02:26:19;;;;;;;4.15;2.60;;;19.00;1.00;;;;;;4927447;29;20195;-90
2022/08/04 02:29:11;;;;;;;5.65;3.17;;;19.00;1.00;;;;;;4937518;29;20050;-89
2022/08/04 02:32:12;;;;;;;3.10;2.50;;;18.90;1.00;;;;;;4938024;29;20143;-90
2022/08/04 02:35:05;;;;;;;3.78;2.38;;;18.80;1.00;;;;;;4931982;29;20066;-89
2022/08/04 02:38:10;;;;;;;4.03;2.63;;;18.70;1.00;;;;;;4937219;29;20067;-90
2022/08/04 02:41:00;;;;;;;3.90;2.38;;;18.50;9.70;;;;;;4933981;29;20211;-88
2022/08/04 02:43:51;;;;;;;4.45;2.30;;;18.40;24.10;;;;;;4936891;29;20055;-89
2022/08/04 02:46:43;;;;;;;3.38;1.80;;;18.30;14.30;;;;;;4935309;29;20362;-89
2022/08/04 02:49:35;;;;;;;3.55;2.53;;;18.30;1.00;;;;;;4937020;29;20130;-89
2022/08/04 02:52:29;;;;;;;4.43;2.63;;;18.30;1.00;;;;;;4932056;29;20154;-90
2022/08/04 02:55:17;;;;;;;3.08;2.38;;;18.50;2.80;;;;;;4937432;29;20119;-90
2022/08/04 02:58:06;;;;;;;6.15;2.42;;;18.50;6.40;;;;;;4938001;29;20052;-89
2022/08/04 03:00:54;;;;;;;4.63;2.47;;;18.50;4.60;;;;;;4931434;29;20135;-89
2022/08/04 03:04:15;;;;;;;2.63;2.25;;;18.40;4.40;;;;;;4928496;29;20062;-87
2022/08/04 03:07:35;;;;;;;2.85;2.20;;;18.40;6.10;;;;;;4934265;29;20052;-89
2022/08/04 03:10:22;;;;;;;3.50;2.30;;;18.40;8.80;;;;;;4932723;29;20048;-88
2022/08/04 03:13:27;;;;;;;3.30;2.55;;;18.30;9.30;;;;;;4937568;29;20071;-89
2022/08/04 03:16:41;;;;;;;4.38;2.15;;;18.30;16.50;;;;;;4936873;29;20102;-89
2022/08/04 03:19:52;;;;;;;2.38;2.17;;;18.20;19.00;;;;;;4911018;29;20044;-90
2022/08/04 03:23:17;;;;;;;2.72;2.33;;;18.20;19.40;;;;;;4935382;29;20056;-89
2022/08/04 03:26:33;;;;;;;4.35;2.40;;;18.10;29.60;;;;;;4935147;29;20058;-90
2022/08/04 03:29:38;;;;;;;5.82;2.45;;;18.10;7.80;;;;;;4925886;29;20552;-89
2022/08/04 03:32:44;;;;;;;2.85;1.80;;;18.10;1.00;;;;;;4923369;29;20071;-90
2022/08/04 03:35:49;;;;;;;2.42;1.98;;;18.30;1.00;;;;;;4935903;29;20040;-90
2022/08/04 03:39:13;;;;;;;2.55;1.85;;;18.30;1.00;;;;;;4933110;29;20095;-89
2022/08/04 03:42:29;;;;;;;3.40;2.00;;;18.30;1.00;;;;;;4934118;29;20058;-89
2022/08/04 03:45:43;;;;;;;2.28;1.95;;;18.40;1.00;;;;;;4931138;29;20123;-89
2022/08/04 03:48:50;;;;;;;4.85;2.30;;;18.30;1.00;;;;;;4937746;29;20055;-90
2022/08/04 03:55:20;;;;;;;2.55;2.20;;;18.10;1.00;;;;;;4929215;29;20152;-90
2022/08/04 03:58:41;;;;;;;2.47;2.00;;;18.10;1.00;;;;;;4930537;29;20095;-88
2022/08/04 04:01:55;;;;;;;2.63;2.13;;;18.10;8.20;;;;;;4925685;29;20051;-90
2022/08/04 04:05:04;;;;;;;3.17;2.35;;;18.00;1.00;;;;;;4924068;29;20051;-90
2022/08/04 04:08:10;;;;;;;4.60;2.60;;;17.90;26.20;;;;;;4935013;29;20040;-90
2022/08/04 04:11:23;;;;;;;3.45;2.72;;;17.80;43.40;;;;;;4934733;29;20062;-90
2022/08/04 04:14:35;;;;;;;3.70;2.25;;;17.70;42.10;;;;;;4924771;29;20092;-89
2022/08/04 04:17:41;;;;;;;3.88;2.38;;;17.70;24.70;;;;;;4936040;29;20059;-90
2022/08/04 04:21:00;;;;;;;3.47;2.55;;;17.80;20.70;;;;;;4933632;29;20113;-90
2022/08/04 04:24:32;;;;;;;5.25;2.53;;;17.90;18.20;;;;;;4924773;29;20115;-90
2022/08/04 04:27:49;;;;;;;2.40;1.95;;;18.00;7.50;;;;;;4919554;29;20458;-91
2022/08/04 04:30:50;;;;;;;8.05;2.40;;;18.20;2.10;;;;;;4940516;29;20143;-90
2022/08/04 04:33:58;;;;;;;4.05;2.10;;;18.40;1.00;;;;;;4935497;29;20055;-90
2022/08/04 04:37:17;;;;;;;4.13;2.60;;;18.60;1.00;;;;;;4936268;29;20110;-90
2022/08/04 04:40:19;;;;;;;4.35;3.00;;;18.70;1.00;;;;;;4932890;29;20063;-90
2022/08/04 04:43:27;;;;;;;2.67;2.17;;;18.80;1.00;;;;;;4935379;29;20111;-90
2022/08/04 04:46:55;;;;;;;5.10;2.78;;;18.80;1.00;;;;;;4935312;29;20047;-90
2022/08/04 04:49:53;;;;;;;6.30;2.58;;;18.80;1.00;;;;;;4935147;29;20114;-89
2022/08/04 04:52:54;;;;;;;4.32;2.67;;;18.90;1.00;;;;;;4934269;29;20043;-89
2022/08/04 04:55:52;;;;;;;4.15;2.10;;;18.90;1.00;;;;;;4932696;29;20493;-91
2022/08/04 04:58:41;;;;;;;3.38;2.35;;;19.00;1.00;;;;;;4935609;29;20500;-90
2022/08/04 05:01:38;;;;;;;4.57;2.33;;;19.10;1.00;;;;;;4927799;29;20556;-91
2022/08/04 05:04:37;;;;;;;3.05;2.70;;;19.20;1.00;;;;;;4936512;29;20123;-91
2022/08/04 05:08:06;;;;;;;5.18;2.30;;;19.30;1.00;;;;;;4936841;29;20044;-89
2022/08/04 05:11:51;;;;;;;5.68;2.60;;;19.40;1.00;;;;;;4930471;29;20052;-88
2022/08/04 05:14:46;;;;;;;4.68;2.35;;;19.40;1.00;;;;;;4935733;29;20048;-91
2022/08/04 05:17:38;;;;;;;7.35;2.65;;;19.40;1.00;;;;;;4921985;29;20466;-88
2022/08/04 05:20:40;;;;;;;4.85;2.75;;;19.40;1.00;;;;;;4932140;29;20059;-90
2022/08/04 05:23:29;;;;;;;6.32;2.90;;;19.50;1.00;;;;;;4931484;29;20136;-89
2022/08/04 05:26:22;;;;;;;3.78;2.40;;;19.50;1.00;;;;;;4936199;29;20082;-88
2022/08/04 05:29:13;;;;;;;5.68;2.65;;;19.60;1.00;;;;;;4941019;29;20116;-91
2022/08/04 05:32:11;;;;;;;3.75;2.35;;;19.70;1.00;;;;;;4940261;29;20450;-88
2022/08/04 05:35:04;;;;;;;5.40;2.40;;;19.80;1.00;;;;;;4960415;29;20051;-89
2022/08/04 05:37:55;;;;;;;10.07;3.00;;;19.80;1.00;;;;;;4939634;29;20071;-89
2022/08/04 05:40:49;;;;;;;3.80;2.70;;;19.90;1.00;;;;;;4945214;29;20115;-91
2022/08/04 05:43:42;;;;;;;4.72;2.60;;;20.00;1.00;;;;;;4946624;29;20077;-88
2022/08/04 05:46:30;;;;;;;6.45;3.10;;;20.20;1.00;;;;;;4941072;29;20103;-90
2022/08/04 05:49:19;;;;;;;4.72;2.97;;;20.40;1.00;;;;;;4936418;29;20191;-89
2022/08/04 05:52:09;;;;;;;5.93;3.10;;;20.60;1.00;;;;;;4931104;29;20369;-90
2022/08/04 05:54:59;;;;;;;5.53;2.17;;;20.80;1.00;;;;;;4949860;29;20181;-91
2022/08/04 05:57:47;;;;;;;6.72;2.97;;;21.00;1.00;;;;;;4938806;29;20051;-91
2022/08/04 06:00:42;;;;;;;3.88;2.30;;;21.10;1.00;;;;;;4940428;29;20065;-89
2022/08/04 06:03:42;;;;;;;4.15;2.90;;;21.10;1.00;;;;;;4937247;29;20047;-91
2022/08/04 06:06:31;;;;;;;3.78;2.47;;;21.30;1.00;;;;;;4940948;29;20043;-89
2022/08/04 06:09:20;;;;;;;4.18;2.05;;;21.40;1.00;;;;;;4923248;29;20052;-90
2022/08/04 06:12:16;;;;;;;7.95;2.70;;;21.60;1.00;;;;;;4939465;29;20070;-91
2022/08/04 06:15:06;;;;;;;5.75;2.30;;;21.80;1.00;;;;;;4927752;29;20062;-90
2022/08/04 06:18:07;;;;;;;5.35;2.30;;;21.90;1.00;;;;;;4953539;29;20087;-88
2022/08/04 06:21:17;;;;;;;5.70;2.53;;;22.00;1.00;;;;;;4948594;29;20104;-90
2022/08/04 06:24:09;;;;;;;3.00;2.50;;;22.30;1.00;;;;;;4961008;28;20028;-81
2022/08/04 06:26:57;;;;;;;7.15;2.60;;;22.60;1.00;;;;;;4953082;29;20076;-87
2022/08/04 06:29:47;;;;;;;11.02;2.90;;;22.80;1.00;;;;;;4930316;29;20063;-90
2022/08/04 06:32:46;;;;;;;4.38;2.10;;;23.10;1.00;;;;;;4943893;29;20044;-90
2022/08/04 06:35:36;;;;;;;3.85;2.50;;;23.30;1.00;;;;;;4940095;29;20070;-91
2022/08/04 06:38:26;;;;;;;2.88;2.00;;;23.50;1.00;;;;;;4938456;29;20118;-91
2022/08/04 06:41:18;;;;;;;4.05;2.60;;;23.60;1.00;;;;;;4937710;29;20083;-87
2022/08/04 06:44:07;;;;;;;6.35;2.25;;;23.80;1.00;;;;;;4936728;29;20472;-86
2022/08/04 06:46:56;;;;;;;6.15;2.50;;;24.00;1.00;;;;;;4935651;29;20615;-88
2022/08/04 06:49:47;;;;;;;5.43;2.50;;;24.10;1.00;;;;;;4938088;29;20338;-88
2022/08/04 06:52:54;;;;;;;2.03;1.83;;;24.30;1.00;;;;;;4923272;29;20380;-86
2022/08/04 06:55:46;;;;;;;3.85;2.20;;;24.50;1.00;;;;;;4936155;29;20079;-88
2022/08/04 06:58:34;;;;;;;3.67;2.13;;;24.80;1.00;;;;;;4947448;29;20051;-89
2022/08/04 07:01:23;;;;;;;2.78;2.15;;;25.10;1.00;;;;;;4941322;29;20036;-92
2022/08/04 07:04:13;;;;;;;3.65;2.10;;;25.40;1.00;;;;;;4945628;29;20054;-89
2022/08/04 07:07:03;;;;;;;4.65;2.05;;;25.50;1.00;;;;;;4952418;29;20056;-90
2022/08/04 07:09:52;;;;;;;5.93;2.10;;;25.60;1.00;;;;;;4953849;29;20103;-83
2022/08/04 07:12:42;;;;;;;2.42;2.00;;;26.00;1.00;;;;;;4952866;29;20080;-90
2022/08/04 07:15:46;;;;;;;3.17;1.80;;;26.40;1.00;;;;;;4938398;29;20051;-85
2022/08/04 07:18:33;;;;;;;5.60;2.30;;;26.80;1.00;;;;;;4936777;29;20067;-82
2022/08/04 07:21:22;;;;;;;2.58;1.95;;;27.10;1.00;;;;;;4935564;29;20050;-85
2022/08/04 07:24:12;;;;;;;5.22;1.95;;;27.50;1.00;;;;;;4938354;29;20051;-86
2022/08/04 07:27:01;;;;;;;2.08;1.90;;;27.80;1.00;;;;;;4922514;29;20080;-87
2022/08/04 07:29:49;;;;;;;3.47;1.63;;;27.90;1.00;;;;;;4928994;29;20446;-86
2022/08/04 07:32:40;;;;;;;2.90;1.75;;;28.00;1.00;;;;;;4938601;29;20059;-85
2022/08/04 07:35:30;;;;;;;4.95;1.95;;;28.40;1.00;;;;;;4938093;29;20126;-85
2022/08/04 07:38:41;;;;;;;5.63;2.15;;;28.80;1.00;;;;;;4932181;29;20092;-82
2022/08/04 07:41:37;;;;;;;2.05;1.58;;;29.30;1.00;;;;;;4930057;29;20103;-84
2022/08/04 07:44:25;;;;;;;2.00;1.50;;;29.50;1.00;;;;;;4935875;29;20043;-83
2022/08/04 07:47:15;;;;;;;2.55;1.63;;;30.00;1.00;;;;;;4932837;29;20462;-86
2022/08/04 07:50:03;;;;;;;4.50;1.40;;;30.20;1.00;;;;;;4938378;29;20354;-84
2022/08/04 07:52:53;;;;;;;3.47;2.00;;;30.50;1.00;;;;;;4927914;29;20052;-85
2022/08/04 07:56:03;;;;;;;2.90;1.50;;;30.70;1.00;;;;;;4936759;29;20088;-84
2022/08/04 07:58:50;;;;;;;3.55;1.55;;;31.00;1.00;;;;;;4939227;29;20150;-84
2022/08/04 08:01:39;;;;;;;1.98;1.50;;;31.80;1.00;;;;;;4936663;29;20051;-84
2022/08/04 08:04:27;;;;;;;5.07;1.80;;;32.10;99.90;;;;;;4933035;29;20056;-86
2022/08/04 08:07:14;;;;;;;3.70;1.77;;;31.90;99.90;;;;;;4939109;29;20078;-85
2022/08/04 08:10:01;;;;;;;3.10;1.88;;;32.00;99.90;;;;;;4932165;29;20533;-86
2022/08/04 08:12:50;;;;;;;1.80;1.70;;;32.30;99.90;;;;;;4937488;29;20047;-86
2022/08/04 08:15:39;;;;;;;1.65;1.55;;;32.10;99.90;;;;;;4926944;29;20378;-91
2022/08/04 08:18:28;;;;;;;1.85;1.33;;;32.70;99.90;;;;;;4931223;29;20382;-87
2022/08/04 08:21:19;;;;;;;2.67;1.70;;;32.30;99.90;;;;;;4935592;29;20051;-85
2022/08/04 08:24:07;;;;;;;3.13;1.63;;;32.80;99.90;;;;;;4926148;29;20048;-84
2022/08/04 08:27:00;;;;;;;3.67;1.60;;;32.90;99.90;;;;;;4934041;29;20127;-83
2022/08/04 08:29:47;;;;;;;1.40;1.30;;;32.90;99.90;;;;;;4932950;29;20084;-82
2022/08/04 08:32:41;;;;;;;1.95;1.50;;;33.10;99.90;;;;;;4930734;29;20060;-85
2022/08/04 08:35:33;;;;;;;4.28;1.58;;;33.30;99.90;;;;;;4930202;29;20059;-83
2022/08/04 08:38:54;;;;;;;2.92;1.70;;;32.90;99.90;;;;;;4932382;29;20126;-84
2022/08/04 08:42:00;;;;;;;1.60;1.50;;;33.60;99.90;;;;;;4930761;29;20054;-84
2022/08/04 08:45:44;;;;;;;2.40;1.50;;;34.20;99.90;;;;;;4942526;29;20050;-84
2022/08/04 08:49:09;;;;;;;4.22;1.60;;;33.80;99.90;;;;;;4884749;29;20053;-84
2022/08/04 08:52:17;;;;;;;3.58;1.77;;;33.30;99.90;;;;;;4891858;29;20056;-86
2022/08/04 08:56:01;;;;;;;1.50;1.40;;;33.70;99.90;;;;;;4931745;29;20071;-85
2022/08/04 08:59:06;;;;;;;7.28;2.03;;;34.00;99.90;;;;;;4936995;29;20048;-86
2022/08/04 09:02:28;;;;;;;3.33;1.85;;;34.00;99.90;;;;;;4922478;29;20055;-86
2022/08/04 09:05:41;;;;;;;1.75;1.45;;;34.80;99.90;;;;;;4939210;29;20362;-84
2022/08/04 09:08:46;;;;;;;1.80;1.65;;;35.60;99.90;;;;;;4937730;29;20331;-87
2022/08/04 09:11:49;;;;;;;4.53;1.60;;;36.20;99.90;;;;;;4938313;29;20058;-87
2022/08/04 09:14:56;;;;;;;1.85;1.65;;;36.10;99.90;;;;;;4938244;29;20066;-86
2022/08/04 09:17:53;;;;;;;1.73;1.52;;;37.00;99.90;;;;;;4929410;29;20059;-84
2022/08/04 09:20:48;;;;;;;1.75;1.42;;;35.80;99.90;;;;;;4934035;29;20051;-85
2022/08/04 09:23:55;;;;;;;1.80;1.65;;;35.60;99.90;;;;;;4931133;29;20059;-85
2022/08/04 09:26:48;;;;;;;1.63;1.52;;;35.30;99.90;;;;;;4940484;29;20626;-83
2022/08/04 09:30:07;;;;;;;1.25;1.17;;;35.80;99.90;;;;;;4934688;29;20130;-85
2022/08/04 09:32:57;;;;;;;2.08;1.70;;;36.40;99.90;;;;;;4926409;29;20058;-85
2022/08/04 09:35:53;;;;;;;2.58;1.33;;;37.60;99.90;;;;;;4933074;29;20051;-84
2022/08/04 09:38:58;;;;;;;3.13;1.58;;;38.70;99.90;;;;;;4924877;29;20075;-83
2022/08/04 09:42:17;;;;;;;1.63;1.48;;;37.60;99.90;;;;;;4924109;29;20062;-84
2022/08/04 09:45:26;;;;;;;1.67;1.58;;;38.10;99.90;;;;;;4927840;29;20052;-85
2022/08/04 09:48:41;;;;;;;3.80;1.55;;;38.30;99.90;;;;;;4932968;29;20462;-84
2022/08/04 09:51:55;;;;;;;1.85;1.50;;;37.60;99.90;;;;;;4934730;29;20080;-84
2022/08/04 09:55:09;;;;;;;3.13;1.35;;;37.40;99.90;;;;;;4929599;29;20048;-85
2022/08/04 09:58:35;;;;;;;2.55;1.50;;;38.20;99.90;;;;;;4937660;29;20095;-84
2022/08/04 10:01:29;;;;;;;2.15;1.60;;;38.60;99.90;;;;;;4935887;29;20043;-84
2022/08/04 10:04:18;;;;;;;6.40;1.40;;;38.00;99.90;;;;;;4939263;29;20130;-86
2022/08/04 10:07:06;;;;;;;5.18;1.70;;;37.60;99.90;;;;;;4924835;29;20111;-85
2022/08/04 10:10:28;;;;;;;3.47;1.60;;;37.20;99.90;;;;;;4930567;29;20118;-86
2022/08/04 10:13:37;;;;;;;1.38;1.27;;;37.70;99.90;;;;;;4945929;29;20055;-85
2022/08/04 10:16:46;;;;;;;3.35;1.30;;;38.40;99.90;;;;;;4940518;29;20063;-86
2022/08/04 10:19:40;;;;;;;2.35;1.40;;;39.00;99.90;;;;;;4942272;29;20092;-85
2022/08/04 10:22:39;;;;;;;2.90;1.23;;;39.30;99.90;;;;;;4934605;29;20039;-83
2022/08/04 10:25:55;;;;;;;2.33;1.60;;;40.00;99.90;;;;;;4921501;29;20142;-85
2022/08/04 10:28:59;;;;;;;3.58;1.40;;;40.50;99.90;;;;;;4935007;29;20047;-84
2022/08/04 10:32:13;;;;;;;2.65;1.33;;;40.50;99.90;;;;;;4931509;29;20044;-84
2022/08/04 10:35:25;;;;;;;1.75;1.17;;;40.10;99.90;;;;;;4912991;29;20047;-84
2022/08/04 10:38:20;;;;;;;3.22;1.30;;;38.70;99.90;;;;;;4933583;29;20044;-86
2022/08/04 10:41:24;;;;;;;1.30;1.20;;;38.40;99.90;;;;;;4926028;29;20044;-84
2022/08/04 10:44:30;;;;;;;2.70;1.10;;;38.40;99.90;;;;;;4937887;29;20050;-84
2022/08/04 10:47:36;;;;;;;1.20;1.10;;;38.70;99.90;;;;;;4935391;29;20059;-87
2022/08/04 10:50:25;;;;;;;2.47;1.23;;;40.10;99.90;;;;;;4937194;29;20051;-90
2022/08/04 10:53:18;;;;;;;1.30;1.10;;;39.90;99.90;;;;;;4939455;29;20063;-86
2022/08/04 10:56:24;;;;;;;2.03;1.35;;;40.50;99.90;;;;;;4937862;29;20170;-85
2022/08/04 10:59:17;;;;;;;1.95;1.17;;;39.70;99.90;;;;;;4915776;29;20111;-83
2022/08/04 11:02:44;;;;;;;3.33;1.08;;;39.70;99.90;;;;;;4941631;29;20573;-82
2022/08/04 11:05:52;;;;;;;2.55;1.40;;;40.80;99.90;;;;;;4947166;28;20043;-84
2022/08/04 11:08:47;;;;;;;1.30;1.10;;;40.60;99.90;;;;;;4950401;29;20168;-83
2022/08/04 11:11:37;;;;;;;3.03;1.35;;;41.60;99.90;;;;;;4946077;29;20059;-83
2022/08/04 11:15:08;;;;;;;2.95;1.10;;;41.80;99.90;;;;;;4953585;28;20082;-83
2022/08/04 11:18:01;;;;;;;2.50;1.40;;;42.30;99.90;;;;;;4932021;28;20040;-87
2022/08/04 11:21:22;;;;;;;1.00;1.00;;;42.30;99.90;;;;;;4938768;29;20043;-84
2022/08/04 11:24:18;;;;;;;3.22;1.50;;;41.90;99.90;;;;;;4937448;29;20103;-86
2022/08/04 11:27:18;;;;;;;1.45;1.30;;;42.00;99.90;;;;;;4941908;29;20099;-84
2022/08/04 11:30:08;;;;;;;2.67;1.50;;;41.80;99.90;;;;;;4936082;29;20469;-84
2022/08/04 11:33:08;;;;;;;1.20;1.10;;;42.40;99.90;;;;;;4924509;29;20136;-83
2022/08/04 11:36:20;;;;;;;2.05;1.35;;;41.10;99.90;;;;;;4936784;29;20130;-85
2022/08/04 11:39:12;;;;;;;1.63;1.52;;;41.10;99.90;;;;;;4927688;29;20051;-87
2022/08/04 11:42:18;;;;;;;2.53;1.20;;;40.90;99.90;;;;;;4936698;29;20057;-87
2022/08/04 11:45:16;;;;;;;1.63;1.30;;;41.80;99.90;;;;;;4937007;29;20040;-85
2022/08/04 11:48:10;;;;;;;3.10;1.10;;;41.50;99.90;;;;;;4933442;29;20055;-85
2022/08/04 11:51:04;;;;;;;1.88;1.15;;;41.80;99.90;;;;;;4936509;29;20039;-85
2022/08/04 11:53:54;;;;;;;3.45;1.30;;;41.70;99.90;;;;;;4934399;29;20453;-84
2022/08/04 11:56:42;;;;;;;4.57;1.45;;;41.40;99.90;;;;;;4931058;29;20066;-83
2022/08/04 11:59:32;;;;;;;3.72;1.58;;;41.00;99.90;;;;;;4933115;29;20110;-86
2022/08/04 12:02:41;;;;;;;2.13;1.00;;;41.20;99.90;;;;;;4931551;29;20055;-86
2022/08/04 12:05:36;;;;;;;2.25;1.20;;;41.50;99.90;;;;;;4929715;29;20044;-85
2022/08/04 12:09:01;;;;;;;1.92;1.17;;;42.90;99.90;;;;;;4923925;29;20052;-85
2022/08/04 12:12:24;;;;;;;2.50;1.40;;;43.90;99.90;;;;;;4933083;29;20047;-83
2022/08/04 12:15:28;;;;;;;3.78;1.50;;;44.30;99.90;;;;;;4933367;29;20044;-84
2022/08/04 12:18:23;;;;;;;3.15;1.67;;;45.00;99.90;;;;;;4936694;29;20043;-85
2022/08/04 12:21:22;;;;;;;4.13;1.33;;;45.10;99.90;;;;;;4927868;29;20044;-84
2022/08/04 12:24:29;;;;;;;3.97;0.90;;;44.50;99.90;;;;;;4927382;29;20166;-85
2022/08/04 12:27:38;;;;;;;1.27;1.15;;;44.20;99.90;;;;;;4931174;29;20047;-84
2022/08/04 12:30:35;;;;;;;2.08;1.30;;;43.10;99.90;;;;;;4936198;29;20043;-87
2022/08/04 12:33:57;;;;;;;3.20;1.23;;;42.80;99.90;;;;;;4933699;29;20047;-89
2022/08/04 12:37:03;;;;;;;3.50;1.20;;;43.00;99.90;;;;;;4922943;29;20154;-88
2022/08/04 12:39:59;;;;;;;1.77;1.50;;;42.30;99.90;;;;;;4935980;29;20051;-86
2022/08/04 12:43:23;;;;;;;3.97;1.45;;;42.70;99.90;;;;;;4922955;29;20051;-84
2022/08/04 12:46:21;;;;;;;5.00;1.45;;;43.20;99.90;;;;;;4936383;29;20047;-85
2022/08/04 12:49:10;;;;;;;3.08;1.42;;;42.30;99.90;;;;;;4938881;29;20067;-84
2022/08/04 12:51:58;;;;;;;2.92;1.30;;;41.50;99.90;;;;;;4933439;29;20071;-86
2022/08/04 12:54:56;;;;;;;4.40;1.20;;;41.40;99.90;;;;;;4924172;29;20179;-85
2022/08/04 12:57:45;;;;;;;4.05;1.35;;;41.60;99.90;;;;;;4937492;29;20059;-86
2022/08/04 13:00:36;;;;;;;3.60;1.30;;;42.80;99.90;;;;;;4939447;29;20126;-85
2022/08/04 13:03:36;;;;;;;3.33;1.35;;;44.20;99.90;;;;;;4939962;29;20044;-84
2022/08/04 13:06:34;;;;;;;1.48;1.10;;;43.80;99.90;;;;;;4936656;29;20118;-83
2022/08/04 13:09:25;;;;;;;3.05;1.30;;;44.00;99.90;;;;;;4936258;29;20070;-83
2022/08/04 13:12:14;;;;;;;4.70;1.20;;;44.90;99.90;;;;;;4941433;29;20059;-85
2022/08/04 13:15:16;;;;;;;3.60;1.42;;;45.30;99.90;;;;;;4927388;29;20052;-86
2022/08/04 13:18:30;;;;;;;2.97;1.20;;;46.10;99.90;;;;;;4932087;29;20039;-84
2022/08/04 13:21:20;;;;;;;3.47;1.27;;;45.80;99.90;;;;;;4936359;29;20083;-85
2022/08/04 13:24:29;;;;;;;1.33;1.13;;;46.30;99.90;;;;;;4935736;29;20044;-86
2022/08/04 13:27:21;;;;;;;2.72;1.55;;;46.50;99.90;;;;;;4937924;29;20122;-87
2022/08/04 13:30:09;;;;;;;3.30;1.23;;;46.40;99.90;;;;;;4940401;29;20072;-86
2022/08/04 13:33:10;;;;;;;1.65;1.30;;;46.70;99.90;;;;;;4928707;29;20075;-86
2022/08/04 13:35:58;;;;;;;4.50;1.30;;;45.40;99.90;;;;;;4934878;29;20464;-86
2022/08/04 13:38:54;;;;;;;4.50;1.30;;;44.60;99.90;;;;;;4941241;29;20051;-86
2022/08/04 13:41:45;;;;;;;1.58;1.13;;;44.70;99.90;;;;;;4942457;29;20062;-87
2022/08/04 13:44:54;;;;;;;3.78;1.20;;;46.00;99.90;;;;;;4940748;29;20442;-85
2022/08/04 13:47:42;;;;;;;2.10;1.20;;;45.70;99.90;;;;;;4940439;29;20059;-86
2022/08/04 13:50:32;;;;;;;2.92;0.90;;;46.40;99.90;;;;;;4943174;29;20036;-86
2022/08/04 13:53:19;;;;;;;3.47;1.38;;;46.40;99.90;;;;;;4931721;29;20056;-86
2022/08/04 13:56:16;;;;;;;4.60;1.58;;;46.00;99.90;;;;;;4940779;29;20170;-85
2022/08/04 13:59:17;;;;;;;1.48;1.35;;;44.60;99.90;;;;;;4932756;29;20373;-84
2022/08/04 14:02:15;;;;;;;1.50;1.40;;;44.40;99.90;;;;;;4937843;29;20049;-85
2022/08/04 14:05:11;;;;;;;1.40;1.30;;;43.90;99.90;;;;;;4929373;29;20135;-87
2022/08/04 14:08:06;;;;;;;4.53;1.30;;;44.10;99.90;;;;;;4931961;29;20414;-85
2022/08/04 14:10:56;;;;;;;1.50;1.15;;;44.60;99.90;;;;;;4936336;29;20331;-86
2022/08/04 14:13:44;;;;;;;1.27;1.20;;;44.10;99.90;;;;;;4939010;29;20115;-85
2022/08/04 14:16:31;;;;;;;1.55;1.20;;;43.80;99.90;;;;;;4937606;29;20146;-84
2022/08/04 14:19:18;;;;;;;2.00;1.30;;;44.40;99.90;;;;;;4938991;29;20090;-84
2022/08/04 14:22:05;;;;;;;2.55;1.20;;;45.10;99.90;;;;;;4925333;29;20062;-85
2022/08/04 14:25:11;;;;;;;3.10;1.50;;;44.80;99.90;;;;;;4933507;29;20049;-87
2022/08/04 14:28:03;;;;;;;2.60;1.40;;;44.60;99.90;;;;;;4942303;29;20122;-86
2022/08/04 14:31:14;;;;;;;2.45;1.30;;;45.20;99.90;;;;;;4938301;29;20087;-86
2022/08/04 14:34:04;;;;;;;2.97;1.25;;;45.80;99.90;;;;;;4921670;29;20043;-87
2022/08/04 14:37:14;;;;;;;3.55;1.55;;;46.00;99.90;;;;;;4934236;29;20055;-86
2022/08/04 14:40:05;;;;;;;6.10;1.60;;;44.60;99.90;;;;;;4931308;29;20377;-86
2022/08/04 14:42:58;;;;;;;3.25;1.70;;;43.70;99.90;;;;;;4935414;29;20048;-85
2022/08/04 14:45:48;;;;;;;1.88;1.33;;;43.00;99.90;;;;;;4928472;29;20056;-86
2022/08/04 14:49:00;;;;;;;2.35;1.60;;;42.50;99.90;;;;;;4928519;29;20067;-86
2022/08/04 14:52:01;;;;;;;1.33;1.23;;;42.70;99.90;;;;;;4930536;29;20099;-85
2022/08/04 14:54:49;;;;;;;2.63;1.50;;;43.60;99.90;;;;;;4937061;29;20051;-86
2022/08/04 14:57:53;;;;;;;3.88;1.30;;;43.00;99.90;;;;;;4935839;29;20450;-85
2022/08/04 15:01:03;;;;;;;2.78;1.23;;;42.50;99.90;;;;;;4935463;29;20124;-85
2022/08/04 15:04:00;;;;;;;3.95;1.58;;;43.20;99.90;;;;;;4932316;29;20060;-83
2022/08/04 15:06:47;;;;;;;2.80;1.30;;;42.40;99.90;;;;;;4933328;29;20062;-84
2022/08/04 15:09:35;;;;;;;4.43;1.23;;;41.90;99.90;;;;;;4937666;29;20043;-86
2022/08/04 15:12:23;;;;;;;1.77;1.40;;;42.10;99.90;;;;;;4934608;29;20048;-84
2022/08/04 15:15:13;;;;;;;2.33;1.42;;;41.30;99.90;;;;;;4937578;29;20047;-86
2022/08/04 15:18:20;;;;;;;1.30;1.20;;;40.40;99.90;;;;;;4925361;29;20059;-83
2022/08/04 15:21:12;;;;;;;4.13;1.40;;;38.90;99.90;;;;;;4931664;29;20041;-85
2022/08/04 15:23:59;;;;;;;;;;;37.90;99.90;;;;;;4935935;29;20142;-83
2022/08/04 15:26:54;;;;;;;1.63;1.20;;;37.00;99.90;;;;;;4932242;29;19929;-86
2022/08/04 15:29:45;;;;;;;2.45;1.40;;;36.10;99.90;;;;;;4934600;29;20110;-87
2022/08/04 15:32:52;;;;;;;1.55;1.45;;;35.80;99.90;;;;;;4937549;29;20102;-86
2022/08/04 15:35:45;;;;;;;2.05;1.80;;;35.90;99.90;;;;;;4925430;29;20059;-85
2022/08/04 15:38:54;;;;;;;5.50;1.58;;;35.90;99.90;;;;;;4935349;29;20481;-87
2022/08/04 15:41:52;;;;;;;4.15;1.70;;;36.50;99.90;;;;;;4933930;29;20047;-87
2022/08/04 15:44:50;;;;;;;3.38;1.67;;;38.10;99.90;;;;;;4933558;29;20469;-89